createdAt,value
2023-01-31T00:01:12.005Z,3.06
2023-01-31T00:06:21.973Z,3.07
2023-01-31T00:11:25.632Z,3.10
2023-01-31T00:16:27.714Z,3.13
2023-01-31T00:21:31.111Z,3.13
2023-01-31T00:26:34.924Z,3.12
2023-01-31T00:31:37.024Z,3.12
2023-01-31T00:36:38.979Z,3.10
2023-01-31T00:41:43.006Z,3.04
2023-01-31T00:46:47.051Z,2.84
2023-01-31T00:51:48.461Z,2.58
2023-01-31T00:56:49.910Z,2.38
2023-01-31T01:01:51.467Z,2.20
2023-01-31T01:06:52.979Z,2.05
2023-01-31T01:11:54.388Z,2.03
2023-01-31T01:16:58.226Z,1.99
2023-01-31T01:22:01.023Z,1.97
2023-01-31T01:27:04.923Z,2.04
2023-01-31T01:32:07.468Z,2.03
2023-01-31T01:37:19.900Z,1.91
2023-01-31T01:42:24.125Z,1.92
2023-01-31T01:47:35.172Z,1.91
2023-01-31T01:52:42.500Z,2.01
2023-01-31T01:57:47.621Z,2.11
2023-01-31T02:02:52.146Z,2.20
2023-01-31T02:07:58.544Z,2.30
2023-01-31T02:13:00.284Z,2.38
2023-01-31T02:18:03.630Z,2.45
2023-01-31T02:23:23.855Z,2.49
2023-01-31T02:28:47.012Z,2.50
2023-01-31T02:33:48.505Z,2.54
2023-01-31T02:39:15.017Z,2.57
2023-01-31T02:44:59.541Z,2.59
2023-01-31T02:50:11.440Z,2.59
2023-01-31T02:55:50.942Z,2.44
2023-01-31T03:00:57.853Z,2.39
2023-01-31T03:06:24.641Z,2.43
2023-01-31T03:11:34.617Z,2.40
2023-01-31T03:17:11.442Z,2.24
2023-01-31T03:22:23.967Z,2.26
2023-01-31T03:27:25.425Z,2.33
2023-01-31T03:32:45.785Z,2.14
2023-01-31T03:37:55.673Z,1.79
2023-01-31T03:43:24.098Z,1.53
2023-01-31T03:48:32.753Z,1.41
2023-01-31T03:53:42.035Z,1.41
2023-01-31T03:58:53.666Z,1.38
2023-01-31T04:04:01.115Z,1.36
2023-01-31T04:09:02.921Z,1.32
2023-01-31T04:14:04.461Z,1.39
2023-01-31T04:19:06.345Z,1.48
2023-01-31T04:24:10.321Z,1.50
2023-01-31T04:29:12.095Z,1.52
2023-01-31T04:34:13.638Z,1.58
2023-01-31T04:39:15.823Z,1.62
2023-01-31T04:44:17.289Z,1.63
2023-01-31T04:49:18.712Z,1.64
2023-01-31T04:54:20.230Z,1.67
2023-01-31T04:59:21.647Z,1.72
2023-01-31T05:04:23.590Z,1.75
2023-01-31T05:09:25.157Z,1.75
2023-01-31T05:14:27.253Z,1.76
2023-01-31T05:19:28.656Z,1.80
2023-01-31T05:24:31.870Z,1.85
2023-01-31T05:29:33.622Z,1.88
2023-01-31T05:34:35.937Z,1.90
2023-01-31T05:39:37.504Z,1.92
2023-01-31T05:44:38.931Z,1.94
2023-01-31T05:49:40.370Z,1.95
2023-01-31T05:54:41.770Z,1.97
2023-01-31T05:59:43.364Z,1.99
2023-01-31T06:04:44.766Z,2.01
2023-01-31T06:09:46.176Z,2.01
2023-01-31T06:14:49.273Z,2.02
2023-01-31T06:19:51.639Z,2.02
2023-01-31T06:24:53.095Z,2.04
2023-01-31T06:29:55.380Z,2.09
2023-01-31T06:34:57.427Z,2.15
2023-01-31T06:39:59.515Z,2.18
2023-01-31T06:45:00.925Z,2.17
2023-01-31T06:50:02.419Z,2.18
2023-01-31T06:55:04.016Z,2.20
2023-01-31T07:00:06.080Z,2.23
2023-01-31T07:05:07.913Z,2.25
2023-01-31T07:10:10.487Z,2.28
2023-01-31T07:15:12.238Z,2.32
2023-01-31T07:20:13.804Z,2.36
2023-01-31T07:25:15.380Z,2.45
2023-01-31T07:30:16.961Z,2.53
2023-01-31T07:35:19.492Z,2.59
2023-01-31T07:40:21.184Z,2.62
2023-01-31T07:45:23.984Z,2.64
2023-01-31T07:50:27.131Z,2.66
2023-01-31T07:55:28.574Z,2.65
2023-01-31T08:00:48.569Z,2.66
2023-01-31T08:05:50.068Z,2.62
2023-01-31T08:10:51.508Z,2.67
2023-01-31T08:15:53.868Z,2.78
2023-01-31T08:20:57.265Z,2.89
2023-01-31T08:26:10.318Z,2.95
2023-01-31T08:31:16.257Z,2.98
2023-01-31T08:36:19.516Z,3.01
2023-01-31T08:41:23.737Z,3.05
2023-01-31T08:46:31.145Z,3.07
2023-01-31T08:51:32.871Z,3.13
2023-01-31T08:56:34.289Z,3.18
2023-01-31T09:01:35.793Z,3.23
2023-01-31T09:06:37.340Z,3.24
2023-01-31T09:12:21.976Z,3.21
2023-01-31T09:17:23.434Z,3.20
2023-01-31T09:22:24.960Z,3.17
2023-01-31T09:27:27.187Z,3.24
2023-01-31T09:32:30.066Z,3.38
2023-01-31T09:37:32.273Z,3.46
2023-01-31T09:42:45.389Z,3.58
2023-01-31T09:47:50.705Z,3.70
2023-01-31T09:52:52.252Z,3.82
2023-01-31T09:58:17.749Z,3.91
2023-01-31T10:03:43.460Z,4.04
2023-01-31T10:08:46.617Z,4.16
2023-01-31T10:13:57.690Z,4.22
2023-01-31T10:19:06.217Z,4.21
2023-01-31T10:24:23.883Z,4.20
2023-01-31T10:29:34.103Z,4.21
2023-01-31T10:34:43.478Z,4.23
2023-01-31T10:39:56.627Z,4.24
2023-01-31T10:45:15.507Z,4.28
2023-01-31T10:50:19.670Z,4.31
2023-01-31T10:55:33.964Z,4.34
2023-01-31T11:00:35.652Z,4.35
2023-01-31T11:05:40.275Z,4.38
2023-01-31T11:10:51.958Z,4.44
2023-01-31T11:15:55.471Z,4.54
2023-01-31T11:20:59.483Z,4.65
2023-01-31T11:26:02.210Z,4.76
2023-01-31T11:31:06.967Z,4.88
2023-01-31T11:36:14.805Z,4.95
2023-01-31T11:41:37.344Z,4.94
2023-01-31T11:46:56.035Z,4.98
2023-01-31T11:52:01.113Z,5.03
2023-01-31T11:57:13.097Z,5.12
2023-01-31T12:02:31.264Z,5.27
2023-01-31T12:07:44.233Z,5.31
2023-01-31T12:12:45.719Z,5.26
2023-01-31T12:17:50.473Z,5.25
2023-01-31T12:23:28.896Z,5.29
2023-01-31T12:29:12.034Z,5.32
2023-01-31T12:34:41.902Z,5.20
2023-01-31T12:40:22.873Z,5.09
2023-01-31T12:45:42.740Z,5.10
2023-01-31T12:51:15.846Z,5.03
2023-01-31T12:56:29.755Z,4.81
2023-01-31T13:01:47.422Z,4.70
2023-01-31T13:06:58.688Z,4.67
2023-01-31T13:12:11.648Z,4.67
2023-01-31T13:17:17.581Z,4.63
2023-01-31T13:22:42.033Z,4.54
2023-01-31T13:27:52.100Z,4.42
2023-01-31T13:32:56.120Z,4.30
2023-01-31T13:38:02.886Z,4.16
2023-01-31T13:43:13.152Z,3.98
2023-01-31T13:48:25.722Z,3.91
2023-01-31T13:53:32.572Z,3.85
2023-01-31T13:58:36.153Z,3.84
2023-01-31T14:04:12.341Z,3.78
2023-01-31T14:09:24.272Z,3.73
2023-01-31T14:14:37.330Z,3.74
2023-01-31T14:19:47.754Z,3.77
2023-01-31T14:25:00.078Z,3.79
2023-01-31T14:30:04.713Z,3.76
2023-01-31T14:35:23.837Z,3.73
2023-01-31T14:40:57.629Z,3.68
2023-01-31T14:46:12.911Z,3.65
2023-01-31T14:51:52.383Z,3.67
2023-01-31T14:57:12.388Z,3.67
2023-01-31T15:02:43.867Z,3.70
2023-01-31T15:08:23.973Z,3.68
2023-01-31T15:13:56.189Z,3.67
2023-01-31T15:19:08.258Z,3.64
2023-01-31T15:24:24.905Z,3.55
2023-01-31T15:29:33.777Z,3.51
2023-01-31T15:34:46.911Z,3.47
2023-01-31T15:40:19.865Z,3.42
2023-01-31T15:45:25.542Z,3.38
2023-01-31T15:50:30.352Z,3.37
2023-01-31T15:55:35.950Z,3.34
2023-01-31T16:00:38.077Z,3.29
2023-01-31T16:05:40.152Z,3.19
2023-01-31T16:10:44.477Z,3.10
2023-01-31T16:15:47.063Z,3.03
2023-01-31T16:20:51.687Z,2.99
2023-01-31T16:26:11.234Z,3.02
2023-01-31T16:31:16.459Z,3.07
2023-01-31T16:36:27.527Z,3.12
2023-01-31T16:41:52.957Z,3.16
2023-01-31T16:46:54.457Z,3.14
2023-01-31T16:52:13.429Z,3.14
2023-01-31T16:57:25.755Z,3.16
2023-01-31T17:02:33.570Z,3.22
2023-01-31T17:07:36.867Z,3.26
2023-01-31T17:12:40.613Z,3.27
2023-01-31T17:17:42.171Z,3.32
2023-01-31T17:22:53.228Z,3.38
2023-01-31T17:27:58.253Z,3.40
2023-01-31T17:33:00.459Z,3.44
2023-01-31T17:38:02.468Z,3.46
2023-01-31T17:43:05.119Z,3.49
2023-01-31T17:48:07.741Z,3.48
2023-01-31T17:53:13.600Z,3.55
2023-01-31T17:58:18.015Z,3.58
2023-01-31T18:03:22.636Z,3.59
2023-01-31T18:08:24.176Z,3.61
2023-01-31T18:13:25.592Z,3.67
2023-01-31T18:18:26.987Z,3.74
2023-01-31T18:23:28.499Z,3.79
2023-01-31T18:28:29.955Z,3.85
2023-01-31T18:33:32.206Z,3.89
2023-01-31T18:38:33.675Z,3.94
2023-01-31T18:43:35.560Z,3.97
2023-01-31T18:48:38.890Z,4.04
2023-01-31T18:53:41.577Z,4.08
2023-01-31T18:58:46.874Z,4.04
2023-01-31T19:03:50.210Z,4.05
2023-01-31T19:08:52.554Z,4.03
2023-01-31T19:13:54.632Z,3.98
2023-01-31T19:18:56.809Z,3.96
2023-01-31T19:24:00.712Z,4.04
2023-01-31T19:29:04.527Z,4.10
2023-01-31T19:34:06.887Z,4.19
2023-01-31T19:39:11.237Z,4.22
2023-01-31T19:44:12.733Z,4.27
2023-01-31T19:49:14.243Z,4.31
2023-01-31T19:54:17.564Z,4.29
2023-01-31T19:59:19.993Z,4.29
2023-01-31T20:04:21.434Z,4.23
2023-01-31T20:09:22.861Z,4.18
2023-01-31T20:14:24.551Z,4.12
2023-01-31T20:19:25.995Z,4.05
2023-01-31T20:24:27.511Z,4.01
2023-01-31T20:29:28.940Z,3.99
2023-01-31T20:34:30.368Z,3.98
2023-01-31T20:39:31.788Z,4.00
2023-01-31T20:44:33.399Z,4.01
2023-01-31T20:49:34.831Z,4.03
2023-01-31T20:54:36.311Z,4.06
2023-01-31T20:59:38.066Z,4.10
2023-01-31T21:04:39.500Z,4.11
2023-01-31T21:09:40.935Z,4.03
2023-01-31T21:14:42.419Z,3.88
2023-01-31T21:19:43.940Z,3.78
2023-01-31T21:24:45.365Z,3.76
2023-01-31T21:29:46.887Z,3.76
2023-01-31T21:34:48.525Z,3.77
2023-01-31T21:39:49.921Z,3.77
2023-01-31T21:44:51.325Z,3.78
2023-01-31T21:49:52.758Z,3.78
2023-01-31T21:54:54.213Z,3.80
2023-01-31T21:59:55.639Z,3.85
2023-01-31T22:04:57.054Z,3.92
2023-01-31T22:09:58.526Z,3.99
2023-01-31T22:14:59.996Z,4.05
2023-01-31T22:20:01.525Z,4.11
2023-01-31T22:25:03.095Z,4.15
2023-01-31T22:30:27.784Z,4.20
2023-01-31T22:35:26.572Z,4.26
2023-01-31T22:40:28.012Z,4.27
2023-01-31T22:45:29.403Z,4.28
2023-01-31T22:50:30.815Z,4.27
2023-01-31T22:55:32.359Z,4.28
2023-01-31T23:00:34.346Z,4.25
2023-01-31T23:05:39.844Z,4.28
2023-01-31T23:10:42.688Z,4.27
2023-01-31T23:15:44.129Z,4.26
2023-01-31T23:20:45.550Z,4.25
2023-01-31T23:25:46.985Z,4.33
2023-01-31T23:30:48.849Z,4.38
2023-01-31T23:35:50.976Z,4.40
2023-01-31T23:40:53.861Z,4.41
2023-01-31T23:45:55.304Z,4.38
2023-01-31T23:51:03.450Z,4.35
2023-01-31T23:56:05.113Z,4.34
